Time;durP1;ratioP1;P1;durP2;ratioP2;P2;SDS_P1;SDS_P2;PMS_P1;PMS_P2;Temp;Humidity;BMP_temperature;BMP_pressure;BME280_temperature;BME280_humidity;BME280_pressure;Samples;Min_cycle;Max_cycle;Signal;HPM_P1;HPM_P2
2021/12/13 00:02:18;;;;;;;24.30;11.68;;;4.00;98.40;;;;;;5000571;28;20212;-73
2021/12/13 00:04:56;;;;;;;18.58;9.77;;;4.00;98.50;;;;;;5000936;28;20054;-73
2021/12/13 00:07:29;;;;;;;24.10;12.00;;;4.00;98.50;;;;;;5001484;28;20080;-73
2021/12/13 00:09:57;;;;;;;22.60;10.88;;;4.00;98.40;;;;;;5001445;28;20046;-73
2021/12/13 00:12:34;;;;;;;21.92;10.25;;;4.00;98.50;;;;;;4985004;28;20092;-73
2021/12/13 00:15:03;;;;;;;24.05;10.02;;;4.00;98.30;;;;;;4985543;28;20194;-73
2021/12/13 00:17:40;;;;;;;23.83;11.13;;;4.00;98.40;;;;;;5002576;28;20034;-72
2021/12/13 00:20:27;;;;;;;23.60;11.38;;;4.00;98.40;;;;;;4986441;28;20026;-72
2021/12/13 00:22:53;;;;;;;27.70;13.05;;;3.90;98.60;;;;;;5002581;28;20041;-73
2021/12/13 00:25:24;;;;;;;23.10;11.07;;;3.90;98.80;;;;;;5001060;28;20032;-73
2021/12/13 00:28:00;;;;;;;24.05;11.38;;;3.90;99.00;;;;;;5000817;28;20030;-72
2021/12/13 00:30:25;;;;;;;22.20;10.75;;;3.80;99.10;;;;;;4970396;28;20038;-73
2021/12/13 00:33:06;;;;;;;27.38;11.65;;;3.90;99.00;;;;;;5002397;28;20026;-73
2021/12/13 00:35:50;;;;;;;23.40;11.65;;;3.80;99.20;;;;;;5001787;28;20102;-73
2021/12/13 00:38:19;;;;;;;20.48;9.88;;;3.90;99.20;;;;;;4985102;28;20026;-73
2021/12/13 00:40:49;;;;;;;25.65;10.98;;;3.90;99.00;;;;;;5002151;28;20270;-73
2021/12/13 00:43:26;;;;;;;19.98;10.52;;;4.10;98.80;;;;;;5001138;28;20026;-73
2021/12/13 00:46:07;;;;;;;21.03;10.33;;;4.10;98.60;;;;;;4984266;28;20029;-73
2021/12/13 00:48:38;;;;;;;24.95;11.13;;;4.10;98.60;;;;;;5001190;28;20604;-73
2021/12/13 00:51:05;;;;;;;23.70;11.23;;;4.20;98.60;;;;;;4969883;28;20022;-73
2021/12/13 00:53:40;;;;;;;24.45;11.40;;;4.20;98.40;;;;;;5002302;28;20026;-73
2021/12/13 00:57:00;;;;;;;21.73;10.18;;;4.20;98.30;;;;;;5002111;28;20022;-73
2021/12/13 00:59:37;;;;;;;22.80;10.60;;;4.20;98.40;;;;;;5002484;28;20089;-73
2021/12/13 01:02:27;;;;;;;23.92;10.88;;;4.20;98.50;;;;;;5002307;28;20030;-73
2021/12/13 01:05:13;;;;;;;23.02;11.00;;;4.20;98.50;;;;;;4999711;28;20320;-72
2021/12/13 01:08:39;;;;;;;26.05;12.18;;;4.20;98.50;;;;;;5001071;28;20344;-72
2021/12/13 01:11:35;;;;;;;22.90;10.77;;;4.10;98.70;;;;;;5001074;28;20038;-73
2021/12/13 01:14:34;;;;;;;25.65;11.73;;;4.00;98.90;;;;;;5004785;28;20125;-72
2021/12/13 01:17:38;;;;;;;23.00;11.05;;;4.00;99.20;;;;;;5005040;28;20077;-72
2021/12/13 01:20:42;;;;;;;26.55;12.27;;;4.00;99.10;;;;;;5004933;28;20218;-72
2021/12/13 01:23:17;;;;;;;24.95;12.38;;;4.00;99.20;;;;;;5006015;28;20313;-72
2021/12/13 01:26:01;;;;;;;26.98;11.88;;;4.00;99.40;;;;;;4989215;28;20314;-72
2021/12/13 01:28:37;;;;;;;21.95;10.38;;;4.10;99.10;;;;;;5004916;28;20021;-72
2021/12/13 01:31:09;;;;;;;23.63;11.85;;;4.30;98.90;;;;;;5005236;28;20037;-72
2021/12/13 01:33:41;;;;;;;26.45;11.27;;;4.30;98.70;;;;;;5005758;28;20056;-73
2021/12/13 01:36:08;;;;;;;24.55;11.38;;;4.30;98.60;;;;;;5004406;28;20026;-72
2021/12/13 01:38:47;;;;;;;27.02;12.82;;;4.30;98.80;;;;;;5005724;28;20049;-71
2021/12/13 01:41:19;;;;;;;27.15;12.13;;;4.30;98.70;;;;;;5004736;28;20228;-71
2021/12/13 01:44:01;;;;;;;22.25;11.40;;;4.30;98.70;;;;;;5005667;28;20057;-71
2021/12/13 01:46:35;;;;;;;25.17;10.93;;;4.30;98.70;;;;;;5003472;28;20137;-71
2021/12/13 01:49:01;;;;;;;24.23;12.50;;;4.20;98.90;;;;;;4988839;28;20065;-72
2021/12/13 01:51:27;;;;;;;23.52;11.55;;;4.20;99.10;;;;;;4988658;28;20030;-73
2021/12/13 01:53:58;;;;;;;23.90;11.98;;;4.20;99.10;;;;;;5005480;28;20082;-73
2021/12/13 01:59:29;;;;;;;25.08;12.02;;;4.30;98.90;;;;;;5004839;28;20033;-73
2021/12/13 02:02:11;;;;;;;20.63;10.18;;;4.30;98.80;;;;;;5004721;28;20309;-72
2021/12/13 02:04:37;;;;;;;23.67;12.18;;;4.30;98.80;;;;;;5005238;28;20032;-72
2021/12/13 02:07:03;;;;;;;23.80;11.77;;;4.40;98.70;;;;;;5004093;28;20030;-72
2021/12/13 02:09:39;;;;;;;23.40;10.88;;;4.30;98.80;;;;;;5004100;28;20026;-74
2021/12/13 02:12:14;;;;;;;24.85;11.20;;;4.20;99.00;;;;;;5004026;28;20101;-73
2021/12/13 02:16:55;;;;;;;25.70;11.27;;;4.20;99.10;;;;;;5042601;23;20087;-76
2021/12/13 02:17:36;;;;;;;24.17;10.15;;;4.20;99.20;;;;;;5023818;28;20017;-76
2021/12/13 02:20:19;;;;;;;25.77;10.55;;;4.30;99.10;;;;;;5020078;28;20021;-77
2021/12/13 02:22:49;;;;;;;23.08;11.00;;;4.30;99.00;;;;;;5029235;28;20026;-78
2021/12/13 02:25:37;;;;;;;25.42;11.63;;;4.30;99.00;;;;;;5030317;28;20085;-78
2021/12/13 02:28:15;;;;;;;27.02;11.82;;;4.30;99.20;;;;;;5021125;28;20033;-78
2021/12/13 02:30:58;;;;;;;24.55;11.52;;;4.30;99.10;;;;;;5012037;28;20337;-78
2021/12/13 02:33:32;;;;;;;25.45;11.00;;;4.30;99.20;;;;;;5009765;28;20079;-78
2021/12/13 02:36:17;;;;;;;25.85;11.00;;;4.30;99.30;;;;;;5010541;28;20085;-78
2021/12/13 02:38:46;;;;;;;24.48;11.43;;;4.30;99.20;;;;;;5010712;28;20077;-78
2021/12/13 02:41:13;;;;;;;26.08;10.45;;;4.30;99.30;;;;;;5010953;28;20029;-78
2021/12/13 02:43:43;;;;;;;26.40;11.83;;;4.30;99.30;;;;;;4997870;28;20019;-78
2021/12/13 02:46:09;;;;;;;23.52;10.73;;;4.30;99.50;;;;;;5026503;28;20250;-78
2021/12/13 02:48:52;;;;;;;24.15;11.52;;;4.40;99.30;;;;;;5010373;28;20022;-78
2021/12/13 02:51:29;;;;;;;24.05;10.70;;;4.40;99.30;;;;;;5027675;28;20030;-78
2021/12/13 02:54:01;;;;;;;29.05;10.70;;;4.40;99.20;;;;;;5028124;28;20026;-78
2021/12/13 02:56:37;;;;;;;25.88;11.07;;;4.40;99.30;;;;;;5015319;28;20360;-78
2021/12/13 02:59:04;;;;;;;22.38;10.23;;;4.40;99.40;;;;;;5032144;28;20026;-78
2021/12/13 03:01:49;;;;;;;27.63;12.45;;;4.30;99.50;;;;;;5014290;28;20026;-78
2021/12/13 03:04:19;;;;;;;26.50;11.65;;;4.30;99.70;;;;;;5011846;28;20089;-78
2021/12/13 03:07:04;;;;;;;27.67;10.48;;;4.40;99.70;;;;;;5025584;28;20026;-78
2021/12/13 03:09:31;;;;;;;25.83;11.18;;;4.30;99.70;;;;;;5024615;28;20022;-77
2021/12/13 03:11:58;;;;;;;23.65;11.07;;;4.30;99.80;;;;;;5008419;28;20030;-77
2021/12/13 03:14:28;;;;;;;25.48;9.80;;;4.30;99.80;;;;;;4999082;28;20110;-78
2021/12/13 03:17:06;;;;;;;23.05;11.18;;;4.40;99.80;;;;;;4994542;28;20094;-77
2021/12/13 03:19:38;;;;;;;22.95;10.27;;;4.40;99.80;;;;;;4989626;28;20209;-75
2021/12/13 03:22:25;;;;;;;24.85;10.77;;;4.40;99.60;;;;;;5010409;28;20022;-78
2021/12/13 03:25:27;;;;;;;27.30;10.67;;;4.40;99.60;;;;;;5012144;28;20022;-76
2021/12/13 03:28:25;;;;;;;21.10;10.25;;;4.40;99.60;;;;;;4998714;28;20026;-76
2021/12/13 03:31:04;;;;;;;22.90;10.60;;;4.50;99.60;;;;;;4980205;28;20034;-78
2021/12/13 03:33:59;;;;;;;21.52;10.10;;;4.50;99.60;;;;;;4962187;28;20026;-79
2021/12/13 03:36:37;;;;;;;22.92;10.43;;;4.50;99.70;;;;;;4992591;28;20022;-79
2021/12/13 03:39:04;;;;;;;26.45;11.50;;;4.50;99.60;;;;;;4993421;28;20316;-79
2021/12/13 03:41:30;;;;;;;22.75;11.00;;;4.50;99.60;;;;;;4976316;28;20022;-78
2021/12/13 03:44:00;;;;;;;26.73;12.10;;;4.50;99.90;;;;;;5001741;28;20220;-78
2021/12/13 03:46:29;;;;;;;20.05;9.60;;;4.60;99.70;;;;;;5011382;28;20081;-78
2021/12/13 03:48:56;;;;;;;22.38;10.15;;;4.60;99.80;;;;;;4996221;28;20049;-79
2021/12/13 03:51:28;;;;;;;22.67;10.63;;;4.60;99.40;;;;;;4979245;28;20315;-79
2021/12/13 03:53:56;;;;;;;22.23;10.07;;;4.60;99.40;;;;;;4992054;28;20053;-76
2021/12/13 03:56:28;;;;;;;22.73;10.80;;;4.50;99.50;;;;;;4988994;28;20325;-76
2021/12/13 03:59:00;;;;;;;23.80;10.95;;;4.50;99.70;;;;;;4990821;28;20029;-77
2021/12/13 04:01:40;;;;;;;24.50;9.88;;;4.60;99.70;;;;;;4975220;28;20027;-77
2021/12/13 04:04:19;;;;;;;22.98;10.05;;;4.60;99.40;;;;;;4976745;28;20061;-77
2021/12/13 04:06:53;;;;;;;25.63;10.35;;;4.70;99.30;;;;;;4982395;28;20017;-78
2021/12/13 04:09:19;;;;;;;24.75;10.65;;;4.70;99.20;;;;;;4995148;28;20026;-77
2021/12/13 04:11:45;;;;;;;30.02;12.27;;;4.70;99.00;;;;;;4994364;28;20022;-77
2021/12/13 04:14:23;;;;;;;22.35;10.55;;;4.70;99.00;;;;;;5009933;28;20029;-80
2021/12/13 04:17:21;;;;;;;22.02;9.38;;;4.70;99.10;;;;;;4995942;28;20354;-77
2021/12/13 04:19:55;;;;;;;24.38;10.68;;;4.70;99.00;;;;;;5010606;28;20036;-77
2021/12/13 04:22:35;;;;;;;26.65;10.20;;;4.70;98.90;;;;;;4994740;28;20214;-77
2021/12/13 04:25:24;;;;;;;31.77;12.60;;;4.70;98.90;;;;;;5011854;28;20033;-77
2021/12/13 04:28:22;;;;;;;27.05;10.88;;;4.70;98.90;;;;;;5011763;28;20037;-77
2021/12/13 04:30:56;;;;;;;23.63;11.27;;;4.70;99.00;;;;;;5000717;28;20260;-78
2021/12/13 04:33:41;;;;;;;25.77;10.57;;;4.70;99.10;;;;;;5013790;28;20038;-78
2021/12/13 04:36:20;;;;;;;23.67;10.40;;;4.70;99.00;;;;;;5030064;28;20017;-77
2021/12/13 04:38:53;;;;;;;28.48;11.55;;;4.60;99.20;;;;;;5014995;28;20022;-80
2021/12/13 04:41:53;;;;;;;25.60;11.73;;;4.50;99.50;;;;;;5035523;28;20021;-79
2021/12/13 04:44:29;;;;;;;23.23;10.55;;;4.50;99.70;;;;;;5037201;28;20029;-78
2021/12/13 04:46:55;;;;;;;29.63;11.27;;;4.50;99.70;;;;;;5036614;28;20146;-77
2021/12/13 04:49:24;;;;;;;23.38;10.45;;;4.50;99.80;;;;;;5036254;28;20045;-78
2021/12/13 04:52:20;;;;;;;25.00;10.85;;;4.50;99.80;;;;;;5017954;28;20034;-77
2021/12/13 04:54:52;;;;;;;23.13;9.68;;;4.60;99.70;;;;;;5016310;28;20100;-79
2021/12/13 04:57:18;;;;;;;24.48;10.50;;;4.70;99.40;;;;;;4999115;28;20042;-78
2021/12/13 05:00:05;;;;;;;26.10;11.10;;;4.70;99.30;;;;;;5016210;28;20014;-84
2021/12/13 05:02:31;;;;;;;23.58;9.60;;;4.80;99.20;;;;;;5017981;28;20045;-84
2021/12/13 05:04:59;;;;;;;23.95;11.05;;;4.80;99.10;;;;;;5015425;28;20213;-83
2021/12/13 05:07:26;;;;;;;26.25;11.00;;;4.70;99.10;;;;;;4996653;28;20249;-83
2021/12/13 05:09:51;;;;;;;25.63;10.30;;;4.60;99.30;;;;;;4996309;28;20045;-84
2021/12/13 05:12:21;;;;;;;25.15;9.68;;;4.60;99.20;;;;;;5013491;28;20045;-84
2021/12/13 05:14:54;;;;;;;26.08;10.70;;;4.60;99.30;;;;;;4995854;28;20313;-83
2021/12/13 05:17:35;;;;;;;22.42;10.27;;;4.60;99.40;;;;;;4996053;28;20022;-81
2021/12/13 05:20:27;;;;;;;25.58;10.38;;;4.50;99.60;;;;;;4983294;28;20083;-81
2021/12/13 05:23:06;;;;;;;26.80;10.10;;;4.50;99.70;;;;;;5013058;28;20030;-79
2021/12/13 05:25:38;;;;;;;23.00;8.95;;;4.50;99.80;;;;;;5013548;28;20078;-79
2021/12/13 05:28:17;;;;;;;28.27;10.38;;;4.50;99.80;;;;;;4991661;28;20026;-78
2021/12/13 05:30:49;;;;;;;21.52;9.05;;;4.50;99.70;;;;;;5007690;28;20053;-78
2021/12/13 05:33:17;;;;;;;21.83;8.30;;;4.60;99.60;;;;;;4976127;28;20194;-79
2021/12/13 05:35:51;;;;;;;22.52;9.43;;;4.60;99.60;;;;;;4969123;28;20018;-82
2021/12/13 05:38:31;;;;;;;25.00;9.45;;;4.70;99.20;;;;;;5021468;28;20033;-78
2021/12/13 05:40:59;;;;;;;21.73;8.88;;;4.70;99.00;;;;;;5018807;28;20029;-77
2021/12/13 05:43:39;;;;;;;21.30;8.88;;;4.80;98.90;;;;;;5026885;28;20022;-78
2021/12/13 05:46:17;;;;;;;24.42;8.27;;;4.80;98.90;;;;;;5010133;28;20033;-79
2021/12/13 05:48:54;;;;;;;18.67;8.38;;;4.80;98.80;;;;;;5009774;28;20045;-74
2021/12/13 05:51:41;;;;;;;21.25;8.40;;;4.70;98.90;;;;;;5005429;28;20089;-76
2021/12/13 05:54:17;;;;;;;21.15;8.73;;;4.70;99.20;;;;;;5011174;28;20026;-76
2021/12/13 05:57:18;;;;;;;21.48;8.05;;;4.70;99.10;;;;;;5025200;28;20017;-76
2021/12/13 06:00:27;;;;;;;21.13;9.23;;;4.80;99.00;;;;;;5007209;28;20139;-76
2021/12/13 06:03:16;;;;;;;21.20;8.55;;;4.70;99.10;;;;;;5007982;28;20027;-76
2021/12/13 06:05:45;;;;;;;20.77;9.15;;;4.60;99.30;;;;;;5009248;28;20084;-76
2021/12/13 06:08:20;;;;;;;23.23;9.02;;;4.70;99.20;;;;;;5013072;28;20077;-78
2021/12/13 06:10:57;;;;;;;18.35;7.95;;;4.80;99.00;;;;;;5029564;28;20033;-76
2021/12/13 06:13:43;;;;;;;21.65;8.95;;;4.80;99.00;;;;;;4996312;28;20030;-80
2021/12/13 06:16:23;;;;;;;20.30;7.55;;;4.70;99.00;;;;;;5006942;28;20041;-79
2021/12/13 06:18:58;;;;;;;20.00;7.00;;;4.70;99.30;;;;;;5006402;28;20023;-79
2021/12/13 06:22:00;;;;;;;18.92;7.57;;;4.60;99.30;;;;;;5006261;28;20018;-78
2021/12/13 06:24:39;;;;;;;20.30;8.35;;;4.60;99.50;;;;;;5004730;28;20029;-77
2021/12/13 06:27:16;;;;;;;17.90;8.35;;;4.50;99.70;;;;;;4990988;28;20029;-77
2021/12/13 06:30:03;;;;;;;18.60;7.85;;;4.50;99.90;;;;;;4978051;28;20022;-77
2021/12/13 06:32:31;;;;;;;19.80;8.10;;;4.60;99.80;;;;;;5009292;28;20018;-77
2021/12/13 06:34:59;;;;;;;20.58;8.05;;;4.60;99.80;;;;;;5006659;28;20019;-76
2021/12/13 06:37:34;;;;;;;20.13;8.60;;;4.70;99.90;;;;;;5008008;28;20017;-77
2021/12/13 06:40:29;;;;;;;20.08;8.13;;;4.60;99.90;;;;;;5025996;28;20022;-77
2021/12/13 06:43:01;;;;;;;18.35;7.97;;;4.60;99.90;;;;;;5020798;28;20033;-77
2021/12/13 06:45:35;;;;;;;22.50;9.50;;;4.70;99.90;;;;;;5024393;28;20029;-77
2021/12/13 06:48:04;;;;;;;22.08;9.50;;;4.80;99.80;;;;;;5024737;28;20080;-76
2021/12/13 06:50:35;;;;;;;22.63;9.15;;;4.80;99.70;;;;;;5024651;28;20220;-76
2021/12/13 06:53:17;;;;;;;19.60;9.73;;;4.80;99.70;;;;;;5020100;28;20133;-76
2021/12/13 06:55:43;;;;;;;25.15;10.10;;;4.80;99.90;;;;;;4988586;28;20026;-76
2021/12/13 06:58:26;;;;;;;20.25;8.95;;;4.80;99.80;;;;;;4988660;28;20026;-76
2021/12/13 07:00:55;;;;;;;22.60;10.55;;;4.90;99.70;;;;;;4989523;28;20032;-76
2021/12/13 07:03:32;;;;;;;23.13;9.75;;;4.80;99.80;;;;;;4998194;28;20084;-76
2021/12/13 07:06:00;;;;;;;22.83;10.67;;;4.80;99.90;;;;;;5024068;28;20232;-76
2021/12/13 07:08:35;;;;;;;18.38;8.70;;;4.90;99.90;;;;;;5022839;28;20224;-76
2021/12/13 07:11:08;;;;;;;22.83;9.15;;;4.90;99.80;;;;;;4988855;28;20336;-75
2021/12/13 07:13:40;;;;;;;20.50;8.70;;;5.00;99.80;;;;;;4988580;28;20026;-73
2021/12/13 07:16:12;;;;;;;20.80;9.98;;;5.00;99.70;;;;;;4988839;28;20019;-74
2021/12/13 07:19:00;;;;;;;20.70;9.45;;;5.00;99.60;;;;;;5022214;28;20579;-75
2021/12/13 07:21:34;;;;;;;18.92;9.15;;;5.00;99.60;;;;;;5008344;28;20029;-76
2021/12/13 07:24:08;;;;;;;21.20;9.88;;;5.00;99.70;;;;;;5024920;28;20212;-76
2021/12/13 07:26:44;;;;;;;22.48;9.38;;;5.00;99.80;;;;;;5017709;28;20022;-77
2021/12/13 07:29:13;;;;;;;21.00;9.25;;;5.00;99.80;;;;;;5004961;28;20222;-76
2021/12/13 07:31:41;;;;;;;18.88;8.82;;;5.10;99.70;;;;;;5003640;28;20128;-77
2021/12/13 07:34:19;;;;;;;25.08;9.27;;;5.10;99.60;;;;;;4987789;28;20026;-76
2021/12/13 07:36:56;;;;;;;19.13;8.35;;;5.10;99.60;;;;;;4988127;28;20050;-75
2021/12/13 07:39:26;;;;;;;17.65;8.77;;;5.10;99.50;;;;;;5003607;28;20026;-75
2021/12/13 07:41:57;;;;;;;21.48;9.70;;;5.20;99.40;;;;;;4987653;28;20491;-75
2021/12/13 07:44:41;;;;;;;20.67;9.35;;;5.20;99.30;;;;;;4972149;28;20041;-75
2021/12/13 07:47:27;;;;;;;19.17;9.30;;;5.20;99.30;;;;;;4987906;28;20383;-75
2021/12/13 07:49:58;;;;;;;21.27;9.23;;;5.30;99.10;;;;;;4987175;28;20041;-75
2021/12/13 07:52:35;;;;;;;22.20;9.23;;;5.30;99.00;;;;;;4993342;28;20361;-76
2021/12/13 07:55:20;;;;;;;21.02;9.73;;;5.30;99.00;;;;;;5026258;28;20036;-73
2021/12/13 07:57:46;;;;;;;22.08;9.85;;;5.30;99.00;;;;;;5026028;28;20022;-77
2021/12/13 08:00:35;;;;;;;22.20;9.97;;;5.30;99.00;;;;;;5029311;28;20024;-76
2021/12/13 08:03:06;;;;;;;21.42;9.05;;;5.30;99.00;;;;;;5029736;28;20029;-78
2021/12/13 08:05:38;;;;;;;23.45;9.05;;;5.40;99.10;;;;;;5017468;28;20023;-77
2021/12/13 08:08:06;;;;;;;22.90;10.18;;;5.40;99.00;;;;;;5008804;28;20021;-77
2021/12/13 08:10:38;;;;;;;22.25;10.48;;;5.40;99.00;;;;;;4992091;28;20404;-77
2021/12/13 08:13:13;;;;;;;22.20;10.18;;;5.40;98.90;;;;;;5009260;28;20036;-77
2021/12/13 08:15:47;;;;;;;22.42;9.60;;;5.40;99.00;;;;;;5056476;23;20041;-74
2021/12/13 08:18:39;;;;;;;21.50;10.20;;;5.40;99.20;;;;;;5045340;28;20120;-74
2021/12/13 08:21:08;;;;;;;22.90;10.15;;;5.50;99.00;;;;;;5044094;28;20016;-75
2021/12/13 08:23:47;;;;;;;24.20;9.23;;;5.60;99.10;;;;;;5061322;28;20112;-74
2021/12/13 08:26:38;;;;;;;22.52;10.57;;;5.60;98.90;;;;;;5022122;28;20429;-77
2021/12/13 08:29:15;;;;;;;20.13;9.07;;;5.60;99.00;;;;;;5020915;28;20030;-76
2021/12/13 08:31:41;;;;;;;22.85;10.45;;;5.60;99.10;;;;;;5004683;28;20072;-77
2021/12/13 08:34:22;;;;;;;23.35;11.88;;;5.60;99.00;;;;;;5003988;28;20089;-75
2021/12/13 08:36:48;;;;;;;30.65;12.50;;;5.60;99.10;;;;;;5020759;28;20229;-76
2021/12/13 08:39:18;;;;;;;25.50;11.57;;;5.60;99.00;;;;;;5020389;28;20017;-76
2021/12/13 08:41:56;;;;;;;23.17;11.02;;;5.50;99.50;;;;;;5020769;28;20068;-75
2021/12/13 08:44:31;;;;;;;24.02;10.18;;;5.60;99.30;;;;;;5020516;28;20026;-74
2021/12/13 08:47:00;;;;;;;20.63;9.43;;;5.70;99.00;;;;;;5020514;28;20041;-75
2021/12/13 08:49:51;;;;;;;20.00;9.73;;;5.70;98.90;;;;;;5037179;28;20018;-74
2021/12/13 08:52:31;;;;;;;21.73;9.77;;;5.70;99.00;;;;;;5037501;28;20093;-74
2021/12/13 08:55:12;;;;;;;21.00;10.35;;;5.70;99.10;;;;;;5036414;28;20072;-76
2021/12/13 08:57:48;;;;;;;19.70;9.85;;;5.80;98.90;;;;;;5021894;28;20089;-76
2021/12/13 09:00:32;;;;;;;24.38;10.25;;;5.90;98.80;;;;;;5036604;28;20097;-76
2021/12/13 09:03:25;;;;;;;21.02;10.32;;;5.80;98.90;;;;;;5021707;28;20297;-78
2021/12/13 09:06:35;;;;;;;18.55;9.55;;;5.80;99.20;;;;;;5018720;28;20030;-75
2021/12/13 09:09:13;;;;;;;21.55;11.38;;;5.90;99.00;;;;;;5019771;28;20315;-75
2021/12/13 09:11:58;;;;;;;21.05;9.80;;;6.00;98.80;;;;;;5002151;28;20049;-76
2021/12/13 09:14:43;;;;;;;20.50;10.32;;;6.10;98.50;;;;;;5005640;28;20425;-75
2021/12/13 09:17:22;;;;;;;21.98;10.15;;;6.10;98.60;;;;;;5019076;28;20044;-76
2021/12/13 09:19:47;;;;;;;19.92;9.65;;;6.20;98.60;;;;;;5020247;28;20021;-75
2021/12/13 09:22:27;;;;;;;27.77;11.80;;;6.20;98.70;;;;;;5019928;28;20029;-75
2021/12/13 09:25:21;;;;;;;23.13;11.50;;;6.10;98.90;;;;;;5021287;28;20286;-76
2021/12/13 09:28:01;;;;;;;25.02;10.65;;;6.20;99.00;;;;;;5020150;28;20137;-76
2021/12/13 09:30:36;;;;;;;24.27;10.52;;;6.20;99.00;;;;;;5020142;28;20342;-75
2021/12/13 09:33:30;;;;;;;22.85;10.75;;;6.40;98.60;;;;;;5020945;28;20029;-75
2021/12/13 09:35:58;;;;;;;17.55;9.40;;;6.40;98.50;;;;;;5023541;28;20042;-76
2021/12/13 09:38:37;;;;;;;19.75;9.98;;;6.40;98.70;;;;;;5042893;28;20022;-75
2021/12/13 09:41:46;;;;;;;18.92;8.93;;;6.60;98.30;;;;;;5024714;28;20025;-75
2021/12/13 09:44:12;;;;;;;18.30;8.75;;;6.60;98.30;;;;;;5002906;28;20041;-78
2021/12/13 09:46:56;;;;;;;20.83;10.05;;;6.60;98.40;;;;;;5003003;28;20022;-75
2021/12/13 09:49:27;;;;;;;20.40;8.63;;;6.70;98.00;;;;;;5008871;28;20416;-76
2021/12/13 09:52:33;;;;;;;16.05;8.52;;;6.60;98.10;;;;;;5023749;28;20037;-75
2021/12/13 09:55:20;;;;;;;17.88;8.32;;;6.70;98.20;;;;;;5024494;28;20013;-75
2021/12/13 09:58:07;;;;;;;17.83;8.50;;;6.70;98.20;;;;;;5007185;28;20018;-75
2021/12/13 10:00:48;;;;;;;15.45;8.30;;;6.80;98.10;;;;;;5023613;28;20025;-75
2021/12/13 10:03:43;;;;;;;19.55;9.30;;;6.80;97.80;;;;;;5024226;28;20293;-75
2021/12/13 10:06:09;;;;;;;15.55;8.43;;;6.90;97.70;;;;;;5018816;28;20324;-75
2021/12/13 10:08:52;;;;;;;15.93;8.47;;;6.90;97.60;;;;;;5024500;28;20026;-75
2021/12/13 10:11:38;;;;;;;14.15;7.30;;;6.90;97.40;;;;;;4990905;28;20032;-75
2021/12/13 10:14:05;;;;;;;13.73;6.75;;;6.90;97.60;;;;;;5039525;28;20323;-75
2021/12/13 10:16:34;;;;;;;12.85;6.97;;;6.90;97.50;;;;;;5039786;28;20167;-75
2021/12/13 10:19:00;;;;;;;12.07;4.88;;;6.90;97.80;;;;;;5039673;28;20481;-74
2021/12/13 10:21:33;;;;;;;11.17;6.83;;;6.90;97.70;;;;;;5039091;28;20029;-75
2021/12/13 10:24:24;;;;;;;8.60;4.95;;;7.00;97.70;;;;;;5023559;28;20299;-75
2021/12/13 10:26:54;;;;;;;8.35;4.38;;;7.00;97.60;;;;;;5007954;28;20018;-75
2021/12/13 10:29:20;;;;;;;8.10;5.10;;;7.00;97.40;;;;;;5027072;28;20026;-75
2021/12/13 10:31:52;;;;;;;8.50;4.70;;;7.00;97.40;;;;;;5026450;28;20179;-75
2021/12/13 10:34:25;;;;;;;6.05;3.75;;;7.10;97.10;;;;;;5025784;28;20253;-75
2021/12/13 10:36:59;;;;;;;8.45;3.95;;;7.10;96.60;;;;;;5006871;28;20033;-75
2021/12/13 10:39:42;;;;;;;7.05;3.80;;;7.00;96.80;;;;;;5038528;28;20049;-74
2021/12/13 10:42:44;;;;;;;6.53;3.53;;;7.00;97.10;;;;;;5038502;28;20102;-75
2021/12/13 10:45:23;;;;;;;8.90;4.88;;;7.10;96.90;;;;;;5032068;28;20069;-75
2021/12/13 10:47:52;;;;;;;8.48;4.32;;;7.10;97.20;;;;;;5043394;28;20025;-75
2021/12/13 10:50:27;;;;;;;8.00;4.30;;;7.10;97.30;;;;;;5042172;28;20197;-75
2021/12/13 10:52:53;;;;;;;8.45;5.20;;;7.10;97.50;;;;;;5022388;28;20017;-75
2021/12/13 10:55:29;;;;;;;8.70;3.78;;;7.30;97.00;;;;;;5039015;28;20084;-74
2021/12/13 10:57:55;;;;;;;10.95;4.80;;;7.20;97.00;;;;;;5038349;28;20186;-75
2021/12/13 11:00:29;;;;;;;6.17;3.73;;;7.20;97.10;;;;;;5039029;28;20018;-74
2021/12/13 11:03:04;;;;;;;7.55;4.50;;;7.20;97.00;;;;;;5001941;28;20030;-75
2021/12/13 11:05:30;;;;;;;7.15;4.30;;;7.20;97.00;;;;;;5003480;28;20049;-74
2021/12/13 11:07:59;;;;;;;7.80;5.00;;;7.20;97.10;;;;;;5003861;28;20030;-77
2021/12/13 11:10:37;;;;;;;7.35;4.80;;;7.30;97.40;;;;;;4987115;28;20278;-73
2021/12/13 11:13:03;;;;;;;7.47;5.05;;;7.30;97.20;;;;;;5023347;28;20092;-73
2021/12/13 11:15:33;;;;;;;10.57;3.92;;;7.30;97.10;;;;;;5005514;28;20041;-73
2021/12/13 11:18:00;;;;;;;6.03;3.55;;;7.50;96.80;;;;;;5006207;28;20075;-74
2021/12/13 11:20:32;;;;;;;6.53;3.88;;;7.40;96.90;;;;;;5021952;28;20022;-73
2021/12/13 11:22:58;;;;;;;7.63;3.30;;;7.30;97.00;;;;;;5022005;28;20017;-73
2021/12/13 11:25:32;;;;;;;5.30;3.47;;;7.40;96.60;;;;;;5021621;28;20159;-74
2021/12/13 11:27:58;;;;;;;9.13;4.25;;;7.50;96.60;;;;;;5021814;28;20265;-73
2021/12/13 11:30:28;;;;;;;6.72;3.78;;;7.40;96.90;;;;;;5004708;28;20029;-73
2021/12/13 11:32:57;;;;;;;6.85;4.15;;;7.40;96.70;;;;;;5037827;28;20084;-73
2021/12/13 11:35:56;;;;;;;7.43;4.43;;;7.40;97.00;;;;;;5022335;28;20068;-73
2021/12/13 11:39:06;;;;;;;6.78;4.45;;;7.30;97.40;;;;;;5023360;28;20018;-72
2021/12/13 11:42:12;;;;;;;8.13;4.57;;;7.30;97.60;;;;;;5039186;28;20095;-73
2021/12/13 11:45:12;;;;;;;8.15;4.57;;;7.30;97.60;;;;;;5033351;28;20033;-73
2021/12/13 11:48:01;;;;;;;9.02;4.75;;;7.30;97.60;;;;;;5022725;28;20034;-74
2021/12/13 11:51:06;;;;;;;9.60;5.05;;;7.30;97.50;;;;;;5020821;28;20101;-74
2021/12/13 11:53:59;;;;;;;7.05;5.03;;;7.30;97.70;;;;;;5022125;28;20053;-74
2021/12/13 11:57:22;;;;;;;5.90;3.55;;;7.30;97.80;;;;;;5021074;28;20025;-73
2021/12/13 12:00:06;;;;;;;5.97;3.38;;;7.30;97.90;;;;;;5018360;28;20029;-73
2021/12/13 12:03:43;;;;;;;8.40;3.78;;;7.20;97.80;;;;;;5020637;28;20022;-74
2021/12/13 12:06:52;;;;;;;5.40;3.58;;;7.20;98.00;;;;;;5014890;28;20316;-73
2021/12/13 12:10:00;;;;;;;5.72;3.33;;;7.20;97.90;;;;;;5023377;28;20099;-71
2021/12/13 12:13:09;;;;;;;5.78;3.13;;;7.20;98.00;;;;;;5003081;28;20057;-72
2021/12/13 12:15:39;;;;;;;9.68;5.53;;;7.20;97.80;;;;;;5003005;28;20037;-72
2021/12/13 12:18:08;;;;;;;8.38;4.72;;;7.20;97.80;;;;;;5005916;28;20192;-72
2021/12/13 12:20:43;;;;;;;7.53;4.50;;;7.20;97.80;;;;;;5022768;28;20033;-72
2021/12/13 12:23:22;;;;;;;8.05;4.55;;;7.30;97.90;;;;;;5006033;28;20288;-72
2021/12/13 12:25:48;;;;;;;11.25;4.35;;;7.30;98.10;;;;;;5037993;28;20026;-75
2021/12/13 12:28:16;;;;;;;29.57;14.50;;;7.40;98.00;;;;;;5020985;28;20018;-71
2021/12/13 12:30:46;;;;;;;26.80;14.18;;;7.40;97.70;;;;;;5022746;28;20324;-72
2021/12/13 12:33:23;;;;;;;15.60;8.30;;;7.50;97.60;;;;;;5021506;28;20097;-72
2021/12/13 12:35:50;;;;;;;7.15;4.55;;;7.50;97.50;;;;;;5020578;28;20220;-72
2021/12/13 12:38:57;;;;;;;10.48;4.85;;;7.50;97.30;;;;;;5021445;28;20029;-72
2021/12/13 12:42:06;;;;;;;8.55;4.22;;;7.40;97.30;;;;;;5007927;28;20022;-73
2021/12/13 12:44:42;;;;;;;7.18;4.18;;;7.50;97.40;;;;;;5033618;28;20037;-73
2021/12/13 12:47:09;;;;;;;6.15;4.32;;;7.50;97.40;;;;;;5019580;28;20092;-74
2021/12/13 12:49:34;;;;;;;5.13;3.78;;;7.50;97.40;;;;;;5021220;28;20073;-74
2021/12/13 12:52:05;;;;;;;5.97;3.60;;;7.50;97.30;;;;;;5021722;28;20034;-73
2021/12/13 12:54:33;;;;;;;5.82;3.22;;;7.40;97.10;;;;;;5021336;28;20331;-73
2021/12/13 12:56:59;;;;;;;7.55;4.10;;;7.50;97.30;;;;;;5020432;28;20022;-73
2021/12/13 12:59:32;;;;;;;5.73;3.90;;;7.50;97.40;;;;;;5021459;28;20256;-73
2021/12/13 13:02:04;;;;;;;6.22;4.07;;;7.50;97.50;;;;;;5021991;28;20332;-73
2021/12/13 13:04:38;;;;;;;6.90;4.40;;;7.50;97.30;;;;;;5022190;28;20217;-74
2021/12/13 13:07:28;;;;;;;8.25;4.25;;;7.50;97.40;;;;;;5005514;28;20030;-74
2021/12/13 13:10:04;;;;;;;5.90;3.83;;;7.50;97.60;;;;;;5036109;28;20037;-73
2021/12/13 13:12:31;;;;;;;8.50;4.28;;;7.50;97.60;;;;;;5039567;28;20018;-73
2021/12/13 13:15:24;;;;;;;8.75;4.97;;;7.50;97.70;;;;;;5025884;28;20025;-73
2021/12/13 13:17:58;;;;;;;8.60;4.45;;;7.50;97.60;;;;;;5040344;28;20210;-73
2021/12/13 13:20:53;;;;;;;8.27;5.03;;;7.50;97.70;;;;;;5040476;28;20316;-73
2021/12/13 13:23:22;;;;;;;7.55;4.72;;;7.60;97.30;;;;;;5024872;28;20088;-73
2021/12/13 13:25:59;;;;;;;7.80;4.93;;;7.60;97.00;;;;;;5024877;28;20032;-73
2021/12/13 13:28:35;;;;;;;;;;;7.70;97.10;;;;;;5024715;28;20049;-73
2021/12/13 13:31:21;;;;;;;8.15;4.55;;;7.70;96.90;;;;;;5025917;28;19905;-73
2021/12/13 13:34:36;;;;;;;9.48;5.25;;;7.60;96.90;;;;;;5024060;28;20100;-73
2021/12/13 13:37:04;;;;;;;8.68;5.32;;;7.50;97.10;;;;;;5025037;28;20069;-73
2021/12/13 13:39:56;;;;;;;10.98;5.70;;;7.50;97.50;;;;;;5024994;28;20033;-73
2021/12/13 13:42:27;;;;;;;15.57;7.07;;;7.50;97.60;;;;;;5024713;28;20201;-73
2021/12/13 13:45:10;;;;;;;11.52;6.45;;;7.40;97.70;;;;;;5023611;28;20025;-73
2021/12/13 13:47:43;;;;;;;12.52;5.38;;;7.40;97.80;;;;;;5024453;28;20225;-72